createdAt,value
2019-03-21T00:02:12.226Z,64.39
2019-03-21T00:04:42.228Z,63.88
2019-03-21T00:07:10.726Z,64.76
2019-03-21T00:09:39.199Z,64.37
2019-03-21T00:12:10.408Z,63.69
2019-03-21T00:14:57.109Z,64.25
2019-03-21T00:17:31.313Z,63.42
2019-03-21T00:19:59.785Z,64.65
2019-03-21T00:22:28.284Z,65.14
2019-03-21T00:24:56.760Z,65.86
2019-03-21T00:27:25.245Z,66.46
2019-03-21T00:29:53.720Z,66.13
2019-03-21T00:32:22.291Z,66.15
2019-03-21T00:34:50.753Z,66.22
2019-03-21T00:37:19.244Z,66.66
2019-03-21T00:39:47.716Z,66.91
2019-03-21T00:42:16.213Z,66.83
2019-03-21T00:44:44.683Z,67.07
2019-03-21T00:47:13.187Z,66.21
2019-03-21T00:49:41.662Z,67.61
2019-03-21T00:52:10.155Z,67.51
2019-03-21T00:54:38.635Z,66.91
2019-03-21T00:57:07.133Z,67.42
2019-03-21T00:59:35.601Z,66.29
2019-03-21T01:02:04.096Z,66.83
2019-03-21T01:04:32.633Z,67.10
2019-03-21T01:07:01.159Z,67.42
2019-03-21T01:09:29.625Z,67.29
2019-03-21T01:11:58.120Z,67.25
2019-03-21T01:14:29.948Z,67.34
2019-03-21T01:16:56.803Z,67.15
2019-03-21T01:19:25.282Z,67.45
2019-03-21T01:21:53.773Z,67.61
2019-03-21T01:24:22.240Z,66.85
2019-03-21T01:26:50.744Z,66.58
2019-03-21T01:29:19.277Z,67.30
2019-03-21T01:31:47.792Z,67.33
2019-03-21T01:34:16.266Z,67.57
2019-03-21T01:36:44.757Z,67.85
2019-03-21T01:39:13.233Z,67.04
2019-03-21T01:41:41.696Z,67.89
2019-03-21T01:44:10.190Z,67.60
2019-03-21T01:46:38.661Z,67.08
2019-03-21T01:49:07.148Z,67.75
2019-03-21T01:51:35.619Z,68.08
2019-03-21T01:54:04.179Z,67.33
2019-03-21T01:56:32.640Z,67.56
2019-03-21T01:59:01.149Z,67.25
2019-03-21T02:01:29.622Z,67.40
2019-03-21T02:03:58.122Z,67.08
2019-03-21T02:06:26.596Z,67.02
2019-03-21T02:08:55.352Z,67.02
2019-03-21T02:11:23.815Z,66.79
2019-03-21T02:13:52.316Z,66.61
2019-03-21T02:16:20.787Z,67.21
2019-03-21T02:18:49.289Z,67.12
2019-03-21T02:21:17.754Z,66.47
2019-03-21T02:23:46.252Z,66.09
2019-03-21T02:26:14.718Z,65.90
2019-03-21T02:28:43.221Z,67.43
2019-03-21T02:31:11.737Z,66.97
2019-03-21T02:33:45.049Z,67.24
2019-03-21T02:36:14.315Z,67.20
2019-03-21T02:38:42.878Z,67.27
2019-03-21T02:41:16.585Z,67.06
2019-03-21T02:43:45.080Z,67.37
2019-03-21T02:46:13.567Z,67.58
2019-03-21T02:48:42.128Z,67.88
2019-03-21T02:51:10.605Z,68.20
2019-03-21T02:53:39.115Z,68.00
2019-03-21T02:56:13.524Z,68.28
2019-03-21T02:58:42.024Z,68.31
2019-03-21T03:01:10.497Z,68.88
2019-03-21T03:03:38.993Z,68.91
2019-03-21T03:06:07.533Z,68.54
2019-03-21T03:08:36.017Z,68.62
2019-03-21T03:11:11.077Z,69.18
2019-03-21T03:13:40.849Z,70.04
2019-03-21T03:16:09.318Z,69.41
2019-03-21T03:18:37.815Z,69.81
2019-03-21T03:21:06.356Z,69.20
2019-03-21T03:23:34.846Z,69.59
2019-03-21T03:26:03.318Z,68.87
2019-03-21T03:28:37.640Z,69.50
2019-03-21T03:31:06.109Z,69.46
2019-03-21T03:33:34.640Z,69.14
2019-03-21T03:36:03.089Z,69.14
2019-03-21T03:38:31.586Z,68.37
2019-03-21T03:41:02.587Z,67.95
2019-03-21T03:43:31.138Z,68.56
2019-03-21T03:45:59.617Z,68.46
2019-03-21T03:48:28.755Z,68.31
2019-03-21T03:50:57.233Z,68.03
2019-03-21T03:53:25.745Z,68.59
2019-03-21T03:55:54.234Z,68.06
2019-03-21T03:58:27.327Z,68.14
2019-03-21T04:00:55.791Z,69.18
2019-03-21T04:03:25.738Z,69.56
2019-03-21T04:05:54.218Z,68.36
2019-03-21T04:08:22.706Z,68.58
2019-03-21T04:10:53.221Z,68.96
2019-03-21T04:13:21.717Z,69.14
2019-03-21T04:15:53.075Z,68.91
2019-03-21T04:18:22.862Z,69.72
2019-03-21T04:20:54.502Z,68.80
2019-03-21T04:23:23.911Z,68.81
2019-03-21T04:25:55.369Z,69.12
2019-03-21T04:28:23.873Z,69.49
2019-03-21T04:30:52.358Z,70.19
2019-03-21T04:33:22.701Z,70.24
2019-03-21T04:35:51.053Z,69.66
2019-03-21T04:38:19.559Z,69.67
2019-03-21T04:40:48.048Z,70.01
2019-03-21T04:43:16.534Z,69.82
2019-03-21T04:45:45.003Z,70.22
2019-03-21T04:48:13.498Z,69.52
2019-03-21T04:50:42.643Z,68.90
2019-03-21T04:53:11.123Z,69.32
2019-03-21T04:55:39.791Z,69.75
2019-03-21T04:58:08.260Z,70.21
2019-03-21T05:00:45.034Z,70.66
2019-03-21T05:03:15.837Z,70.75
2019-03-21T05:05:44.313Z,70.70
2019-03-21T05:08:12.789Z,70.60
2019-03-21T05:10:41.286Z,70.33
2019-03-21T05:13:09.759Z,70.50
2019-03-21T05:15:43.743Z,70.23
2019-03-21T05:18:24.107Z,70.43
2019-03-21T05:20:52.573Z,70.10
2019-03-21T05:23:21.041Z,70.39
2019-03-21T05:25:49.539Z,70.27
2019-03-21T05:28:18.015Z,70.24
2019-03-21T05:30:49.892Z,70.31
2019-03-21T05:33:18.384Z,70.46
2019-03-21T05:35:46.858Z,70.07
2019-03-21T05:38:15.530Z,70.14
2019-03-21T05:40:44.009Z,69.82
2019-03-21T05:43:24.659Z,69.14
2019-03-21T05:45:53.156Z,69.62
2019-03-21T05:48:21.713Z,69.25
2019-03-21T05:50:50.210Z,68.90
2019-03-21T05:53:18.691Z,69.52
2019-03-21T05:55:47.266Z,70.63
2019-03-21T05:58:15.743Z,70.04
2019-03-21T06:00:47.297Z,69.51
2019-03-21T06:03:21.584Z,70.04
2019-03-21T06:05:55.973Z,70.03
2019-03-21T06:08:28.096Z,70.53
2019-03-21T06:10:56.603Z,70.04
2019-03-21T06:13:25.072Z,68.87
2019-03-21T06:15:53.594Z,69.29
2019-03-21T06:18:39.716Z,70.23
2019-03-21T06:21:20.162Z,70.06
2019-03-21T06:23:51.688Z,70.51
2019-03-21T06:26:25.810Z,70.45
2019-03-21T06:28:54.284Z,69.66
2019-03-21T06:31:22.784Z,69.96
2019-03-21T06:33:51.253Z,68.76
2019-03-21T06:36:19.746Z,69.68
2019-03-21T06:38:48.217Z,69.37
2019-03-21T06:41:16.723Z,70.50
2019-03-21T06:43:45.196Z,69.73
2019-03-21T06:46:13.704Z,70.16
2019-03-21T06:48:42.179Z,70.53
2019-03-21T06:51:10.677Z,70.26
2019-03-21T06:53:39.147Z,70.37
2019-03-21T06:56:07.644Z,70.10
2019-03-21T06:58:36.122Z,70.17
2019-03-21T07:01:04.689Z,71.31
2019-03-21T07:03:33.175Z,70.11
2019-03-21T07:06:01.671Z,67.88
2019-03-21T07:08:30.145Z,67.43
2019-03-21T07:10:58.648Z,67.66
2019-03-21T07:13:27.116Z,67.81
2019-03-21T07:15:55.621Z,68.89
2019-03-21T07:18:24.100Z,69.01
2019-03-21T07:20:52.592Z,68.95
2019-03-21T07:23:21.080Z,69.10
2019-03-21T07:25:49.740Z,68.62
2019-03-21T07:28:18.215Z,66.26
2019-03-21T07:30:46.710Z,66.30
2019-03-21T07:33:15.181Z,68.15
2019-03-21T07:35:43.682Z,67.58
2019-03-21T07:38:12.163Z,67.64
2019-03-21T07:40:40.663Z,68.16
2019-03-21T07:43:09.142Z,68.09
2019-03-21T07:45:37.639Z,67.91
2019-03-21T07:48:06.193Z,67.91
2019-03-21T07:50:34.689Z,67.75
2019-03-21T07:53:03.160Z,67.58
2019-03-21T07:55:31.662Z,68.40
2019-03-21T07:58:00.130Z,69.51
2019-03-21T08:00:28.623Z,69.08
2019-03-21T08:02:57.097Z,67.63
2019-03-21T08:05:25.597Z,67.26
2019-03-21T08:07:54.078Z,67.56
2019-03-21T08:10:22.568Z,66.97
2019-03-21T08:12:51.049Z,66.47
2019-03-21T08:15:19.608Z,64.38
2019-03-21T08:17:48.090Z,64.26
2019-03-21T08:20:17.537Z,64.73
2019-03-21T08:22:46.085Z,64.20
2019-03-21T08:25:14.581Z,63.24
2019-03-21T08:27:43.063Z,62.60
2019-03-21T08:30:26.851Z,62.76
2019-03-21T08:32:55.324Z,63.68
2019-03-21T08:35:23.832Z,63.13
2019-03-21T08:37:52.312Z,62.63
2019-03-21T08:40:20.822Z,62.91
2019-03-21T08:42:49.359Z,63.88
2019-03-21T08:45:17.880Z,62.22
2019-03-21T08:47:46.365Z,63.67
2019-03-21T08:50:14.870Z,62.75
2019-03-21T08:52:43.362Z,61.65
2019-03-21T08:55:11.917Z,61.99
2019-03-21T08:57:40.397Z,61.71
2019-03-21T09:00:12.071Z,61.90
2019-03-21T09:02:40.544Z,60.66
2019-03-21T09:05:09.165Z,59.21
2019-03-21T09:07:37.680Z,59.42
2019-03-21T09:10:08.761Z,58.84
2019-03-21T09:12:37.260Z,58.08
2019-03-21T09:15:08.517Z,59.59
2019-03-21T09:17:37.056Z,57.13
2019-03-21T09:20:07.774Z,57.99
2019-03-21T09:22:36.277Z,58.05
2019-03-21T09:25:06.892Z,58.81
2019-03-21T09:27:35.560Z,63.06
2019-03-21T09:30:06.715Z,58.62
2019-03-21T09:32:35.230Z,59.57
2019-03-21T09:35:04.742Z,57.94
2019-03-21T09:37:33.257Z,58.85
2019-03-21T09:40:01.724Z,59.16
2019-03-21T09:42:30.213Z,59.86
2019-03-21T09:44:58.695Z,60.82
2019-03-21T09:47:27.195Z,61.89
2019-03-21T09:49:55.677Z,61.67
2019-03-21T09:52:24.190Z,60.29
2019-03-21T09:54:52.667Z,58.93
2019-03-21T09:57:21.187Z,59.93
2019-03-21T09:59:49.655Z,57.60
2019-03-21T10:02:18.232Z,56.26
2019-03-21T10:04:46.718Z,57.10
2019-03-21T10:07:15.225Z,56.95
2019-03-21T10:09:43.720Z,58.26
2019-03-21T10:12:12.208Z,57.21
2019-03-21T10:14:40.690Z,56.04
2019-03-21T10:17:09.203Z,55.13
2019-03-21T10:19:37.684Z,56.35
2019-03-21T10:22:06.184Z,56.08
2019-03-21T10:24:34.658Z,55.37
2019-03-21T10:27:03.169Z,55.92
2019-03-21T10:29:31.641Z,57.23
2019-03-21T10:32:00.157Z,60.27
2019-03-21T10:34:28.636Z,60.68
2019-03-21T10:36:57.123Z,59.43
2019-03-21T10:39:25.632Z,62.19
2019-03-21T10:41:54.114Z,61.08
2019-03-21T10:44:22.614Z,60.26
2019-03-21T10:46:51.088Z,62.52
2019-03-21T10:49:19.602Z,61.86
2019-03-21T10:51:55.039Z,63.56
2019-03-21T10:54:18.303Z,66.17
2019-03-21T10:56:46.785Z,63.20
2019-03-21T10:59:15.290Z,63.03
2019-03-21T11:01:43.771Z,61.98
2019-03-21T11:04:12.266Z,63.95
2019-03-21T11:06:40.738Z,61.05
2019-03-21T11:09:09.584Z,61.01
2019-03-21T11:11:38.065Z,59.22
2019-03-21T11:14:06.563Z,61.60
2019-03-21T11:16:35.036Z,60.50
2019-03-21T11:19:03.543Z,59.54
2019-03-21T11:21:32.018Z,61.39
2019-03-21T11:24:00.521Z,57.02
2019-03-21T11:26:28.986Z,55.43
2019-03-21T11:28:57.493Z,54.90
2019-03-21T11:31:25.971Z,54.38
2019-03-21T11:33:54.467Z,53.22
2019-03-21T11:36:22.940Z,52.19
2019-03-21T11:38:51.434Z,53.12
2019-03-21T11:41:19.933Z,52.15
2019-03-21T11:43:48.419Z,51.48
2019-03-21T11:46:16.898Z,51.82
2019-03-21T11:48:45.380Z,53.43
2019-03-21T11:51:13.869Z,51.93
2019-03-21T11:53:42.334Z,50.13
2019-03-21T11:56:12.951Z,50.85
2019-03-21T11:58:41.037Z,55.20
2019-03-21T12:01:09.544Z,53.14
2019-03-21T12:03:38.029Z,52.83
2019-03-21T12:06:06.551Z,51.57
2019-03-21T12:08:35.026Z,52.81
2019-03-21T12:11:03.535Z,55.52
2019-03-21T12:13:32.002Z,51.52
2019-03-21T12:16:00.502Z,52.21
2019-03-21T12:18:28.984Z,48.16
2019-03-21T12:20:57.563Z,48.41
2019-03-21T12:23:26.035Z,49.62
2019-03-21T12:25:54.535Z,45.95
2019-03-21T12:28:23.017Z,43.91
2019-03-21T12:30:51.522Z,43.96
2019-03-21T12:33:20.006Z,43.36
2019-03-21T12:35:48.510Z,42.90
2019-03-21T12:38:16.994Z,42.51
2019-03-21T12:40:45.495Z,43.90
2019-03-21T12:43:13.970Z,45.21
2019-03-21T12:45:42.474Z,43.82
2019-03-21T12:48:10.959Z,42.74
2019-03-21T12:50:39.533Z,40.96
2019-03-21T12:53:08.121Z,43.09
2019-03-21T12:55:36.632Z,40.99
2019-03-21T12:58:05.482Z,41.07
2019-03-21T13:00:36.324Z,38.56
2019-03-21T13:03:04.974Z,39.71
2019-03-21T13:05:33.525Z,40.92
2019-03-21T13:08:02.029Z,42.44
2019-03-21T13:10:31.484Z,41.78
2019-03-21T13:12:59.991Z,38.75
2019-03-21T13:15:30.181Z,36.09
2019-03-21T13:18:00.399Z,34.14
2019-03-21T13:20:28.899Z,35.51
2019-03-21T13:22:57.407Z,32.37
2019-03-21T13:25:25.879Z,33.19
2019-03-21T13:27:54.451Z,35.05
2019-03-21T13:30:23.007Z,33.70
2019-03-21T13:32:51.504Z,32.02
2019-03-21T13:35:31.600Z,34.32
2019-03-21T13:37:50.222Z,35.25
2019-03-21T13:40:18.699Z,35.72
2019-03-21T13:42:47.215Z,34.39
2019-03-21T13:45:15.700Z,34.23
2019-03-21T13:47:44.211Z,33.82
2019-03-21T13:50:12.838Z,33.36
2019-03-21T13:52:41.340Z,33.62
2019-03-21T13:55:11.461Z,34.61
2019-03-21T13:57:40.013Z,36.07
2019-03-21T14:00:17.502Z,35.30
2019-03-21T14:02:46.003Z,34.32
2019-03-21T14:05:14.725Z,33.24
2019-03-21T14:07:43.399Z,32.14
2019-03-21T14:10:12.729Z,31.69
2019-03-21T14:12:41.227Z,35.19
2019-03-21T14:15:12.686Z,35.79
2019-03-21T14:17:41.197Z,33.43
2019-03-21T14:20:11.410Z,32.26
2019-03-21T14:22:39.999Z,32.73
2019-03-21T14:25:08.612Z,32.29
2019-03-21T14:27:37.188Z,32.13
2019-03-21T14:30:08.303Z,31.66
2019-03-21T14:32:36.813Z,33.88
2019-03-21T14:35:07.140Z,33.79
2019-03-21T14:37:35.640Z,33.41
2019-03-21T14:40:06.231Z,32.60
2019-03-21T14:42:35.000Z,33.36
2019-03-21T14:45:04.746Z,32.89
2019-03-21T14:47:36.402Z,34.69
2019-03-21T14:50:05.657Z,32.35
2019-03-21T14:52:34.334Z,33.74
2019-03-21T14:55:02.888Z,34.33
2019-03-21T14:57:31.404Z,33.74
2019-03-21T14:59:59.878Z,34.50
2019-03-21T15:02:28.375Z,34.82
2019-03-21T15:04:56.860Z,37.75
2019-03-21T15:07:25.371Z,41.41
2019-03-21T15:09:53.855Z,46.52
2019-03-21T15:12:22.321Z,51.43
2019-03-21T15:14:50.828Z,50.53
2019-03-21T15:17:19.310Z,50.75
2019-03-21T15:19:47.814Z,54.60
2019-03-21T15:22:16.291Z,54.16
2019-03-21T15:24:44.865Z,54.32
2019-03-21T15:27:13.346Z,55.34
2019-03-21T15:29:41.849Z,56.42
2019-03-21T15:32:10.329Z,54.69
2019-03-21T15:34:38.848Z,50.69
2019-03-21T15:37:07.321Z,50.42
2019-03-21T15:39:35.835Z,46.78
2019-03-21T15:42:05.449Z,44.44
2019-03-21T15:44:33.958Z,41.76
2019-03-21T15:47:02.449Z,43.73
2019-03-21T15:49:30.950Z,44.85
2019-03-21T15:51:59.436Z,44.24
2019-03-21T15:54:27.937Z,42.93
2019-03-21T15:56:56.422Z,44.77
2019-03-21T15:59:25.330Z,43.49
2019-03-21T16:01:53.804Z,42.16
2019-03-21T16:04:22.317Z,42.63
2019-03-21T16:06:50.795Z,42.38
2019-03-21T16:09:19.297Z,44.62
2019-03-21T16:11:47.773Z,43.23
2019-03-21T16:14:16.298Z,44.40
2019-03-21T16:16:44.770Z,44.47
2019-03-21T16:19:13.271Z,43.30
2019-03-21T16:21:41.746Z,43.79
2019-03-21T16:24:10.252Z,46.35
2019-03-21T16:26:38.731Z,46.04
2019-03-21T16:29:09.947Z,49.29
2019-03-21T16:31:37.435Z,51.13
2019-03-21T16:34:05.934Z,52.54
2019-03-21T16:36:34.416Z,53.95
2019-03-21T16:39:02.919Z,56.04
2019-03-21T16:41:31.394Z,57.98
2019-03-21T16:43:59.897Z,59.57
2019-03-21T16:46:28.373Z,61.92
2019-03-21T16:48:57.448Z,61.52
2019-03-21T16:51:25.925Z,63.96
2019-03-21T16:53:54.402Z,65.71
2019-03-21T16:56:22.909Z,66.47
2019-03-21T16:58:51.392Z,67.91
2019-03-21T17:01:19.900Z,69.20
2019-03-21T17:03:48.381Z,69.36
2019-03-21T17:06:16.909Z,69.74
2019-03-21T17:08:45.357Z,70.92
2019-03-21T17:11:13.891Z,72.20
2019-03-21T17:13:42.454Z,72.77
2019-03-21T17:16:11.448Z,74.20
2019-03-21T17:18:39.931Z,74.69
2019-03-21T17:21:09.733Z,76.30
2019-03-21T17:23:38.395Z,77.63
2019-03-21T17:26:06.877Z,77.61
2019-03-21T17:28:35.381Z,79.10
2019-03-21T17:31:04.062Z,79.22
2019-03-21T17:33:32.578Z,79.76
2019-03-21T17:36:01.078Z,80.51
2019-03-21T17:38:29.560Z,81.08
2019-03-21T17:40:58.059Z,81.59
2019-03-21T17:43:26.544Z,82.72
2019-03-21T17:45:55.044Z,82.60
2019-03-21T17:48:23.509Z,83.40
2019-03-21T17:50:52.000Z,83.67
2019-03-21T17:53:20.476Z,84.04
2019-03-21T17:55:48.982Z,83.96
2019-03-21T17:58:17.458Z,84.48
2019-03-21T18:00:45.947Z,85.50
2019-03-21T18:03:14.421Z,86.50
2019-03-21T18:05:42.912Z,86.60
2019-03-21T18:08:11.392Z,86.54
2019-03-21T18:10:39.885Z,86.84
2019-03-21T18:13:08.359Z,87.11
2019-03-21T18:15:36.859Z,85.93
2019-03-21T18:18:05.576Z,86.61
2019-03-21T18:20:34.073Z,88.24
2019-03-21T18:23:02.543Z,87.75
2019-03-21T18:25:31.033Z,87.93
2019-03-21T18:27:59.518Z,87.83
2019-03-21T18:30:27.988Z,88.25
2019-03-21T18:32:56.767Z,88.08
2019-03-21T18:35:25.348Z,88.06
2019-03-21T18:37:53.847Z,88.76
2019-03-21T18:40:22.327Z,88.40
2019-03-21T18:42:50.823Z,88.07
2019-03-21T18:45:21.112Z,88.90
2019-03-21T18:47:49.571Z,88.28
2019-03-21T18:50:19.182Z,88.62
2019-03-21T18:52:47.685Z,89.32
2019-03-21T18:55:16.397Z,90.87
2019-03-21T18:57:44.898Z,90.55
2019-03-21T19:00:16.059Z,90.17
2019-03-21T19:02:44.556Z,91.14
2019-03-21T19:05:13.465Z,91.99
2019-03-21T19:07:41.978Z,91.91
2019-03-21T19:10:12.999Z,91.31
2019-03-21T19:12:41.503Z,91.54
2019-03-21T19:15:12.023Z,90.32
2019-03-21T19:17:40.521Z,90.71
2019-03-21T19:20:12.003Z,90.71
2019-03-21T19:22:40.507Z,91.33
2019-03-21T19:25:18.474Z,92.29
2019-03-21T19:27:40.113Z,91.98
2019-03-21T19:30:14.375Z,91.75
2019-03-21T19:32:42.887Z,91.28
2019-03-21T19:35:11.797Z,91.95
2019-03-21T19:37:40.303Z,92.52
2019-03-21T19:40:11.752Z,93.20
2019-03-21T19:42:40.248Z,93.24
2019-03-21T19:45:11.257Z,92.63
2019-03-21T19:47:39.956Z,92.50
2019-03-21T19:50:22.084Z,91.73
2019-03-21T19:52:50.657Z,92.17
2019-03-21T19:55:30.292Z,93.37
2019-03-21T19:57:49.361Z,93.12
2019-03-21T20:00:22.108Z,91.79
2019-03-21T20:02:51.154Z,92.96
2019-03-21T20:05:19.662Z,93.71
2019-03-21T20:07:48.231Z,94.51
2019-03-21T20:10:19.219Z,94.50
2019-03-21T20:12:47.712Z,93.63
2019-03-21T20:15:20.819Z,94.30
2019-03-21T20:17:49.328Z,94.11
2019-03-21T20:20:18.638Z,94.99
2019-03-21T20:22:47.371Z,95.74
2019-03-21T20:25:16.394Z,94.87
2019-03-21T20:27:45.003Z,94.56
2019-03-21T20:30:16.671Z,94.52
2019-03-21T20:32:45.807Z,94.41
2019-03-21T20:35:14.323Z,93.70
2019-03-21T20:37:42.982Z,93.04
2019-03-21T20:40:14.171Z,92.77
2019-03-21T20:42:42.654Z,93.61
2019-03-21T20:45:14.065Z,93.67
2019-03-21T20:47:42.537Z,95.21
2019-03-21T20:50:11.478Z,96.62
2019-03-21T20:52:40.019Z,96.64
2019-03-21T20:55:09.355Z,95.69
2019-03-21T20:57:37.981Z,95.50
2019-03-21T21:00:09.468Z,96.30
2019-03-21T21:02:37.958Z,96.43
2019-03-21T21:05:07.118Z,96.36
2019-03-21T21:07:35.591Z,95.43
2019-03-21T21:10:05.972Z,94.97
2019-03-21T21:12:34.455Z,94.55
2019-03-21T21:15:03.426Z,95.58
2019-03-21T21:17:31.898Z,96.39
2019-03-21T21:20:00.440Z,96.19
2019-03-21T21:22:28.888Z,96.28
2019-03-21T21:24:57.396Z,96.98
2019-03-21T21:27:25.875Z,95.92
2019-03-21T21:29:54.379Z,95.83
2019-03-21T21:32:22.850Z,97.21
2019-03-21T21:34:51.366Z,96.57
2019-03-21T21:37:19.837Z,96.28
2019-03-21T21:39:48.328Z,95.38
2019-03-21T21:42:16.801Z,95.06
2019-03-21T21:44:45.375Z,95.86
2019-03-21T21:47:13.859Z,97.29
2019-03-21T21:49:42.364Z,98.73
2019-03-21T21:52:10.844Z,98.00
2019-03-21T21:54:39.361Z,97.74
2019-03-21T21:57:07.838Z,97.21
2019-03-21T21:59:36.349Z,96.93
2019-03-21T22:02:05.070Z,96.67
2019-03-21T22:04:33.552Z,96.87
2019-03-21T22:07:02.052Z,96.44
2019-03-21T22:09:30.527Z,96.93
2019-03-21T22:11:59.032Z,96.87
2019-03-21T22:14:28.002Z,95.44
2019-03-21T22:16:56.493Z,95.18
2019-03-21T22:19:24.966Z,95.19
2019-03-21T22:21:53.469Z,96.18
2019-03-21T22:24:21.938Z,96.56
2019-03-21T22:26:50.573Z,97.77
2019-03-21T22:29:19.049Z,97.13
2019-03-21T22:31:47.548Z,96.27
2019-03-21T22:34:16.022Z,97.02
2019-03-21T22:36:49.227Z,98.02
2019-03-21T22:39:14.722Z,98.00
2019-03-21T22:41:43.230Z,98.10
2019-03-21T22:44:11.721Z,98.44
2019-03-21T22:46:40.197Z,97.71
2019-03-21T22:49:08.673Z,97.79
2019-03-21T22:51:37.160Z,97.51
2019-03-21T22:54:05.701Z,97.29
2019-03-21T22:56:41.183Z,97.66
2019-03-21T22:59:04.392Z,98.88
2019-03-21T23:01:32.884Z,99.12
2019-03-21T23:04:02.914Z,99.15
2019-03-21T23:06:31.542Z,99.40
2019-03-21T23:09:00.009Z,98.88
2019-03-21T23:11:28.515Z,99.20
2019-03-21T23:13:56.994Z,99.08
2019-03-21T23:16:25.535Z,98.83
2019-03-21T23:18:54.039Z,98.86
2019-03-21T23:21:22.506Z,98.07
2019-03-21T23:23:51.010Z,97.11
2019-03-21T23:26:19.490Z,97.71
2019-03-21T23:28:47.985Z,97.94
2019-03-21T23:31:16.463Z,97.20
2019-03-21T23:33:44.965Z,97.20
2019-03-21T23:36:13.441Z,97.50
2019-03-21T23:38:41.943Z,98.29
2019-03-21T23:41:10.418Z,99.14
2019-03-21T23:43:38.918Z,99.24
2019-03-21T23:46:07.403Z,98.46
2019-03-21T23:48:35.902Z,96.53
2019-03-21T23:51:04.445Z,97.23
2019-03-21T23:53:32.934Z,98.17
2019-03-21T23:56:01.409Z,98.90
2019-03-21T23:58:29.915Z,98.06
